Groveland, New York
Current Conditions -  °F | °C
As of 11:54 AM on Monday 22 Dec 2014 (Local Time) from KDSV Reporting Station
Clear Clear  
Wind Chill: -1°   Ceiling: Unl
Heat Index:   Visibility: 10mi
Dew Point: -4°   Wind: 12mph
Humidity: 59%   Direction: 130°SE
Pressure: 30.15"   Gusts: 18mph
Location:  42.66°N, 77.77°W
Report Text: KDSV 221654Z AUTO 13010G16KT 10SM CLR 03/M04 A3015 RMK AO2 SLP226 T00281044
Loading
Personal Weather Stations






























Interactive Weather Map New forecast layout! Learn more

10-Day Weather Forecast

Advertisements
Track Severe Weather on mobile